»·PEaware :: N172SP KSAN-KPSP

N172SP :: KSAN-KPSP

FLIGHT INFORMATION

Flight Status: Arrived
Operator: Privately registered:
United States
More flights under this callsign
Pilot: Alan C. (18866)
Aircraft: CESSNA 172 SKYHAWK
(C172)
More flights by this aircraft type
Origin: KSAN San Diego Intl-Lindbergh
United States
Destination: KPSP Palm Springs Intl
United States
More flights between these airports :: More routes between these airports
Route: +
File this flight plan on PilotEdge
Remarks:
Altitude:
(Current/Filed)
0ft
Speed:
(Current/Filed)
0kts
Departed: 28-Jul-18 12:12 PM
Arrived: 28-Jul-18 01:14 PM
Distance/Time
Traveled:
74nm/1:02
Distance/Time
To Go:
Arrived

Flight Plot

Page will automatically refresh every two minutes.


Map Options




Map Legend


Flown Route
Filed Route
Departure Airport
Arrival Airport
Navaid (VOR, NDB)
Fix

Horizontal Profiles

Position Reports

Time Latitude Longitude Heading Altitude Ground
Speed
28-Jul-18 11:57 32.731965 -117.191201 106 21ft 0kts
28-Jul-18 11:58 32.731965 -117.191201 106 21ft 0kts
28-Jul-18 11:59 32.731965 -117.191201 106 21ft 0kts
28-Jul-18 12:00 32.731965 -117.191201 106 21ft 0kts
28-Jul-18 12:01 32.731965 -117.191201 106 21ft 0kts
28-Jul-18 12:02 32.731965 -117.191201 106 21ft 0kts
28-Jul-18 12:03 32.731965 -117.191201 106 21ft 0kts
28-Jul-18 12:04 32.731965 -117.191201 106 21ft 0kts
28-Jul-18 12:05 32.731965 -117.191201 106 21ft 0kts
28-Jul-18 12:06 32.731965 -117.191201 106 21ft 0kts
28-Jul-18 12:07 32.731965 -117.191201 106 21ft 0kts
28-Jul-18 12:08 32.732538 -117.190385 47 21ft 10kts
28-Jul-18 12:09 32.731588 -117.185866 104 21ft 6kts
28-Jul-18 12:10 32.730539 -117.181452 106 21ft 26kts
28-Jul-18 12:11 32.729513 -117.176709 64 21ft 0kts
28-Jul-18 12:12 32.730176 -117.175913 310 21ft 16kts
28-Jul-18 12:13 32.734867 -117.194870 284 374ft 72kts
28-Jul-18 12:14 32.751375 -117.209378 322 1019ft 77kts
28-Jul-18 12:15 32.768683 -117.224323 318 1742ft 77kts
28-Jul-18 12:16 32.788468 -117.242944 319 2116ft 105kts
28-Jul-18 12:17 32.811609 -117.265092 317 2513ft 109kts
28-Jul-18 12:18 32.835295 -117.287934 316 2911ft 110kts
28-Jul-18 12:19 32.859309 -117.311133 316 3310ft 111kts
28-Jul-18 12:20 32.883561 -117.334578 315 3712ft 113kts
28-Jul-18 12:21 32.914215 -117.337584 7 4164ft 116kts
28-Jul-18 12:22 32.944622 -117.331524 7 4810ft 104kts
28-Jul-18 12:23 32.971773 -117.326231 7 5506ft 94kts
28-Jul-18 12:24 32.996148 -117.321555 7 6149ft 85kts
28-Jul-18 12:25 33.020008 -117.316972 7 6659ft 90kts
28-Jul-18 12:26 33.043242 -117.305429 35 7166ft 92kts
28-Jul-18 12:27 33.063443 -117.286906 41 7671ft 91kts
28-Jul-18 12:28 33.082554 -117.267921 42 8173ft 87kts
28-Jul-18 12:29 33.101294 -117.249072 42 8558ft 96kts
28-Jul-18 12:30 33.123032 -117.227119 42 8855ft 110kts
28-Jul-18 12:31 33.147071 -117.202843 42 9150ft 115kts
28-Jul-18 12:32 33.171749 -117.177924 42 9443ft 117kts
28-Jul-18 12:33 33.198088 -117.151289 41 9499ft 131kts
28-Jul-18 12:34 33.226314 -117.122795 41 9499ft 134kts
28-Jul-18 12:35 33.255053 -117.093784 41 9500ft 135kts
28-Jul-18 12:36 33.283700 -117.064790 41 9503ft 135kts
28-Jul-18 12:37 33.312377 -117.035730 40 9505ft 135kts
28-Jul-18 12:38 33.341089 -117.006604 40 9507ft 135kts
28-Jul-18 12:39 33.369800 -116.977456 40 9510ft 135kts
28-Jul-18 12:40 33.398454 -116.948337 40 9512ft 135kts
28-Jul-18 12:41 33.426951 -116.919351 39 9514ft 135kts
28-Jul-18 12:42 33.453880 -116.888090 44 9512ft 135kts
28-Jul-18 12:43 33.481927 -116.858664 26 9497ft 134kts
28-Jul-18 12:44 33.511841 -116.832462 38 9541ft 131kts
28-Jul-18 12:45 33.527250 -116.794566 79 9520ft 133kts
28-Jul-18 12:46 33.534399 -116.750195 79 9326ft 139kts
28-Jul-18 12:47 33.541751 -116.704598 79 9129ft 140kts
28-Jul-18 12:48 33.549148 -116.658620 79 8928ft 140kts
28-Jul-18 12:49 33.556305 -116.613885 79 8729ft 134kts
28-Jul-18 12:50 33.563290 -116.570261 78 8532ft 132kts
28-Jul-18 12:51 33.570213 -116.526917 78 8336ft 132kts
28-Jul-18 12:52 33.577155 -116.483355 78 8139ft 132kts
28-Jul-18 12:53 33.584041 -116.440040 78 7944ft 132kts
28-Jul-18 12:54 33.590661 -116.398279 78 7673ft 132kts
28-Jul-18 12:55 33.596699 -116.360091 78 7331ft 137kts
28-Jul-18 12:56 33.603349 -116.317927 78 6868ft 140kts
28-Jul-18 12:57 33.610585 -116.272007 78 6366ft 140kts
28-Jul-18 12:58 33.617780 -116.226218 78 5865ft 139kts
28-Jul-18 12:59 33.624877 -116.180927 78 5457ft 132kts
28-Jul-18 13:00 33.646185 -116.177002 275 5447ft 114kts
28-Jul-18 13:01 33.642970 -116.216995 278 5149ft 124kts
28-Jul-18 13:02 33.650676 -116.257873 285 4848ft 126kts
28-Jul-18 13:03 33.659898 -116.298509 285 4547ft 127kts
28-Jul-18 13:04 33.668952 -116.338040 285 4407ft 121kts
28-Jul-18 13:05 33.684505 -116.373158 320 4167ft 125kts
28-Jul-18 13:06 33.708435 -116.395789 322 3851ft 95kts
28-Jul-18 13:07 33.729723 -116.415470 323 3170ft 95kts
28-Jul-18 13:08 33.747874 -116.432138 320 2481ft 77kts
28-Jul-18 13:09 33.762139 -116.447195 319 1846ft 65kts
28-Jul-18 13:10 33.776116 -116.459968 323 1453ft 58kts
28-Jul-18 13:11 33.790702 -116.472980 322 1145ft 68kts
28-Jul-18 13:12 33.804161 -116.485099 323 989ft 67kts
28-Jul-18 13:13 33.815727 -116.495227 323 741ft 68kts
28-Jul-18 13:14 33.827384 -116.505681 325 481ft 51kts
28-Jul-18 13:15 33.827820 -116.507200 181 481ft 3kts
28-Jul-18 13:16 33.825840 -116.508313 269 481ft 12kts
28-Jul-18 13:17 33.825833 -116.509166 267 481ft 0kts

Navigation Log

Ident Type
Flight plan parsing failed, navigation log unavailable